Laukaa, Finland
Kieli:  Suomi
CurCond
Päivitetty31/03/2020 19:56 
 

Lähistön Lentoasemien Säätiloja:

 

EFJY - Jyvaskyla (mil/C,) Finland
Etäisyys Sääasemalta: PKo 21km
Päivitetty: 31/03/2020 19:50
Heikkoa Lumisadetta, Pilvistä
Heikkoa Lumisadetta, Pilvistä
 Tuulen suunta Lo
Tuuli: Lo 17 km/h
Lämpötila: -1°C
Tuulen purevuus: -6°C
Kastepiste: -3°C
Ilmankosteus: 86%
Ilmanpaine: 999 hPa
Yhteenveto: Heikkoa Lumisadetta
Pilvisyys: Pilvistä
Näkyvyys: 2 km
Pilvisyystiedot: Pilvistä 244 m
2020/03/31 16:50 EFJY 311650Z AUTO 22009KT 190V250 2400 -SN OVC008 M01/M03 Q0999
EFHA - Halli (fin-Afb), Finland
Etäisyys Sääasemalta: Lo 56km
Päivitetty: 31/03/2020 19:50
Heikkoa Lumisadetta, Pilvistä
Heikkoa Lumisadetta, Pilvistä
 Tuulen suunta Lo
Tuuli: Lo 30 km/h
Lämpötila: -1°C
Tuulen purevuus: -8°C
Kastepiste: -2°C
Ilmankosteus: 93%
Ilmanpaine: 1001 hPa
Yhteenveto: Heikkoa Lumisadetta
Pilvisyys: Pilvistä
Näkyvyys: 3 km
Pilvisyystiedot: Enimmäkseen pilvistä 244 m
Pilvistä 1250 m
2020/03/31 16:50 EFHA 311650Z AUTO 22016KT 200V260 3400 -SN BKN008 OVC041 M01/M02 Q1001
EFMI - Mikkeli, Finland
Etäisyys Sääasemalta: IKa 105km
Päivitetty: 31/03/2020 19:50
Heikkoa Lumisadetta, Pilvistä
Heikkoa Lumisadetta, Pilvistä
 Tuulen suunta ELo
Tuuli: ELo 19 km/h
Lämpötila: -2°C
Tuulen purevuus: -8°C
Kastepiste: -4°C
Ilmankosteus: 86%
Ilmanpaine: 1002 hPa
Yhteenveto: Heikkoa Lumisadetta
Pilvisyys: Pilvistä
Näkyvyys: 5 km
Pilvisyystiedot: Pilvistä 457 m
2020/03/31 16:50 EFMI 311650Z AUTO 21010KT 180V260 4700 -SN OVC015 M02/M04 Q1002
 
EFTP - Tampere/Pirkkala, Finland
Etäisyys Sääasemalta: Lo 135km
Päivitetty: 31/03/2020 19:50
Heikkoa Lumisadetta, Pilvistä
Heikkoa Lumisadetta, Pilvistä
 Tuulen suunta Lo
Tuuli: Lo 24 km/h
Lämpötila: 0°C
Tuulen purevuus: -6°C
Kastepiste: -1°C
Ilmankosteus: 93%
Ilmanpaine: 1003 hPa
Yhteenveto: Heikkoa Lumisadetta
Pilvisyys: Pilvistä
Näkyvyys: 2 km
Pilvisyystiedot: Pilvistä 183 m
2020/03/31 16:50 EFTP 311650Z AUTO 23013KT 2400 -SN OVC006 M00/M01 Q1003
EFKU - Kuopio (mil/Civ), Finland
Etäisyys Sääasemalta: Ko 146km
Päivitetty: 31/03/2020 19:50
Heikkoa Lumisadetta, Pilvistä
Heikkoa Lumisadetta, Pilvistä
 Tuulen suunta Lo
Tuuli: Lo 26 km/h
Lämpötila: -2°C
Tuulen purevuus: -9°C
Kastepiste: -4°C
Ilmankosteus: 86%
Ilmanpaine: 997 hPa
Yhteenveto: Heikkoa Lumisadetta
Pilvisyys: Pilvistä
Näkyvyys: 2 km
Pilvisyystiedot: Pilvistä 335 m
2020/03/31 16:50 EFKU 311650Z AUTO 22014KT 180V250 1600 -SN OVC011 M02/M04 Q0997 RESN
EFSI - Seinajoki-Ilmajo, Finland
Etäisyys Sääasemalta: LLu 149km
Päivitetty: 31/03/2020 19:50
Selkeätä
Selkeätä
 Tuulen suunta LLo
Tuuli: LLo 15 km/h
Lämpötila: 2°C
Tuulen purevuus: -2°C
Kastepiste: 0°C
Ilmankosteus: 87%
Ilmanpaine: 997 hPa
Yhteenveto: Selkeätä
Näkyvyys: Enemmän Kuin 10 km
2020/03/31 16:50 EFSI 311650Z AUTO 25008KT 180V300 CAVOK 02/M00 Q0997